Henri Guillot

Chefscout - Red Star
25 Nov 2027
Donnerstag
Verarbeitung

Persönlichkeit

Anpassungsfähigkeit (4) Ehrgeiz (3) Kontroverse (15) Loyalität (14) Druck (9) Professionalität (15) Fairness (13) Temperament (9)

Profil

Trainerstil Demokratisch
Lizenz Kontinentale B
Entschlossenheit 6
Menschenführung 7
Motivation 11
Disziplin 4
Arbeitszufriedenheit
100%
Ermüdung
0%
Rolle Chefscout
Gehalt 64.0K p/W
Vertrag 14.03.2029

Leistung

Verhalten Gut
Trainingseffektivität
38%
Spielerentwicklung
15%
Verletzungsprävention
20%
Taktische Umsetzung
30%

Letzte Ereignisse

Nahm an einer Scouting-Besprechung teil jetzt
Empfahl ein Transferziel jetzt
Spieler begutachtet 7T her
Nahm an einer Scouting-Besprechung teil 7T her
Empfahl ein Transferziel 7T her
Spieler begutachtet 7T her
Spieler begutachtet 7T her
Spieler begutachtet 14T her

Aktuell beobachtet

69
Spieler Verein Status Fähigkeit Vertrauen Beobachtet Zuletzt beobachtet Letzte Stimme
Figueiredo Sampaio Correa Aktiv 97 / 96 40% 2 24.11.2027 -
Dylan Cabral Arsenal Aktiv 86 / 114 40% 3 24.11.2027 -
Divine Teah Slavia Prague Aktiv 119 / 120 40% 1 24.11.2027 -
Mateo Peralta Danubio Aktiv 113 / 125 40% 3 23.11.2027 -
Mikkel Hope Haugesund Aktiv 113 / 109 40% 1 23.11.2027 -
Mateo Pérez Curci Independiente Aktiv 127 / 127 40% 1 23.11.2027 -
Alejandro Almaraz Nueva Chicago Aktiv 95 / 106 40% 3 19.11.2027 -
Francisco Rincon Llaneros Aktiv 97 / 94 40% 2 19.11.2027 -
Tyron Kariuki KCB Aktiv 74 / 65 40% 1 19.11.2027 -
Bahia Criciuma Aktiv 113 / 118 40% 3 18.11.2027 -
Ramiro Jara Racing Aktiv 77 / 84 40% 2 18.11.2027 -
Joel Ezra Enyimba Aktiv 93 / 108 40% 2 18.11.2027 -
Bop Guèye Haugesund Aktiv 113 / 126 40% 4 15.11.2027 -
Nacim Dendani Famalicao Aktiv 106 / 106 40% 2 15.11.2027 -
Matías Pérez Alvarado Aktiv 94 / 94 40% 1 15.11.2027 -
Marvin Illary Helsingborg Aktiv 72 / 76 40% 3 14.11.2027 -
Diogo Guzmán Montevideo City Torque Aktiv 123 / 121 40% 6 14.11.2027 -
Oscar Otero Atletico Venezuela Aktiv 111 / 114 40% 1 14.11.2027 -
Nazareno Petrecca Nueva Chicago Aktiv 110 / 97 40% 2 12.11.2027 -
Franco Tejera Oriental Aktiv 74 / 87 40% 3 12.11.2027 -
Daniel Ferraresi Llaneros Aktiv 84 / 82 40% 4 12.11.2027 -
Hassan Beja AFC Leopards Aktiv 92 / 80 40% 3 11.11.2027 -
Onuorah Onyedika Kun Khalifat Aktiv 89 / 80 40% 4 10.11.2027 -
Francisco Triver River Plate Aktiv 95 / 87 40% 3 08.11.2027 -
Tiziano Cabrera Central Norte Aktiv 99 / 88 40% 3 08.11.2027 -
Fredrik Ardraa Stromsgodset Aktiv 93 / 105 40% 2 07.11.2027 -
Erawan Garnier Nimes Aktiv 102 / 119 40% 2 05.11.2027 -
Daniel Gomez Valledupar Aktiv 97 / 91 40% 1 05.11.2027 -
Nikolay Sotnikov Arsenal Dzerzhinsk Aktiv 82 / 88 40% 2 03.11.2027 -
Anton Höög IFK Norrkoping Aktiv 107 / 113 40% 1 03.11.2027 -
Luighi Palmeiras Aktiv 105 / 120 40% 1 02.11.2027 -
Lukas Gausdal IK Start Aktiv 112 / 115 40% 1 31.10.2027 -
Juan Román Gimenez Estudiantes Aktiv 97 / 103 40% 2 30.10.2027 -
Gustavo Lozano Metropolitanos Aktiv 81 / 99 40% 1 27.10.2027 -
Edwin Hormaza Depor Aktiv 82 / 99 40% 1 26.10.2027 -
Mateo Alcoba Albion Aktiv 89 / 92 40% 3 25.10.2027 -
Juan Rodríguez Wanderers Aktiv 107 / 92 40% 1 24.10.2027 -
Celías Ingenthron Vélez Aktiv 102 / 132 40% 1 24.10.2027 -
Wilfred Correa Caracas Aktiv 89 / 90 40% 2 20.10.2027 -
Gabriel Mec Porto Aktiv 130 / 125 40% 1 19.10.2027 -
Lisandro Piñero Vélez Aktiv 123 / 126 40% 1 17.10.2027 -
Mateo Rodríguez Artigas Aktiv 63 / 67 40% 1 16.10.2027 -
Jhon Aponza Boca Juniors Aktiv 120 / 129 40% 1 13.10.2027 -
Luca Regiardo Newell's Old Boys Aktiv 95 / 98 40% 1 13.10.2027 -
Samuel Posada Leones Aktiv 90 / 89 40% 1 11.10.2027 -
Bryan Caicedo Leones Aktiv 97 / 108 40% 1 10.10.2027 -
Juan Diego Perdomo Depor Aktiv 81 / 94 40% 2 09.10.2027 -
Egor Yuschenko Volna Pinsk Aktiv 90 / 84 40% 1 04.10.2027 -
Franco Minerva Platense Aktiv 130 / 116 40% 1 04.10.2027 -
Joaquín Nazar Maipú Aktiv 83 / 81 40% 1 04.10.2027 -
Chari Giwa US Bougouba Aktiv 67 / 97 40% 1 09.08.2027 -
Mateo Silvetti Los Angeles Football Club Aktiv 113 / 130 40% 1 09.08.2027 -
Abdeljalil Hachem US Creteil Bericht bereit 94 / 83 65% 1 19.07.2027 -
Arjan Malić Sturm Graz Aktiv 130 / 134 40% 1 19.07.2027 -
Lior Mashansky Renaissance Aktiv 60 / 58 40% 1 19.07.2027 -
Mbekezeli Mbokazi Chicago Fire Aktiv 128 / 143 40% 1 19.07.2027 -
Vasco Santos Oliveirense Aktiv 98 / 92 40% 1 12.07.2027 -
Adam Bakoune Ospitaletto Aktiv 90 / 101 40% 1 02.06.2027 -
Percy Jali Free State Stars Aktiv 82 / 91 40% 1 02.06.2027 -
Simone Kosijer Triestina Verhandlung 92 / 106 40% 1 02.06.2027 -
Shota Shekiladze Akhmat Grozny Bericht bereit 110 / 110 66% 1 01.06.2027 -
Goga Kobiashvili Veres Verhandlung 92 / 92 66% 1 01.06.2027 -
Yussif Saidu Zaragoza Aktiv 129 / 118 40% 1 01.06.2027 -
Riley Owen Trento Aktiv 96 / 113 40% 1 01.06.2027 -
Martim Cunha Porto Aktiv 110 / 103 40% 1 01.06.2027 -
Cheveyo Tsawa Club Brugge Aktiv 118 / 113 40% 1 02.01.2027 -
Elie N'Gatta Sochaux Verloren 99 / 109 40% 1 02.01.2027 -
Amar Memić Casa Pia Aktiv 127 / 128 62% 1 01.01.2027 Befürworten
Milan Roganović Racing Genk Aktiv 113 / 107 40% 1 17.08.2026 -